createdAt,value
2023-05-12T00:01:55.226Z,16.96
2023-05-12T00:06:13.458Z,16.99
2023-05-12T00:10:31.510Z,16.93
2023-05-12T00:14:48.941Z,16.96
2023-05-12T00:19:06.617Z,16.93
2023-05-12T00:23:24.285Z,16.89
2023-05-12T00:27:41.951Z,16.95
2023-05-12T00:31:59.914Z,16.93
2023-05-12T00:36:17.576Z,16.88
2023-05-12T00:40:35.184Z,16.91
2023-05-12T00:44:52.902Z,16.90
2023-05-12T00:49:10.931Z,16.90
2023-05-12T00:53:37.631Z,16.90
2023-05-12T00:58:03.008Z,16.89
2023-05-12T01:02:21.709Z,16.87
2023-05-12T01:06:49.440Z,16.88
2023-05-12T01:11:07.290Z,16.86
2023-05-12T01:15:24.955Z,16.90
2023-05-12T01:19:52.921Z,16.87
2023-05-12T01:24:12.455Z,16.85
2023-05-12T01:28:30.204Z,16.86
2023-05-12T01:32:47.776Z,16.84
2023-05-12T01:37:05.713Z,16.81
2023-05-12T01:41:23.206Z,16.86
2023-05-12T01:45:40.976Z,16.82
2023-05-12T01:49:58.503Z,16.77
2023-05-12T01:54:16.228Z,16.85
2023-05-12T01:58:33.878Z,16.78
2023-05-12T02:02:51.830Z,16.73
2023-05-12T02:07:10.262Z,16.76
2023-05-12T02:11:27.783Z,16.73
2023-05-12T02:15:46.054Z,16.78
2023-05-12T02:20:05.426Z,16.72
2023-05-12T02:24:23.075Z,16.70
2023-05-12T02:28:41.185Z,16.75
2023-05-12T02:32:58.733Z,16.63
2023-05-12T02:37:16.299Z,16.63
2023-05-12T02:41:34.353Z,16.65
2023-05-12T02:45:52.144Z,16.63
2023-05-12T02:50:10.058Z,16.74
2023-05-12T02:54:27.855Z,16.65
2023-05-12T02:58:46.004Z,16.63
2023-05-12T03:03:04.027Z,16.69
2023-05-12T03:07:21.879Z,16.60
2023-05-12T03:11:39.571Z,16.65
2023-05-12T03:16:01.547Z,16.67
2023-05-12T03:20:20.544Z,16.59
2023-05-12T03:24:38.526Z,16.73
2023-05-12T03:28:56.059Z,16.63
2023-05-12T03:33:13.782Z,16.72
2023-05-12T03:37:31.511Z,16.70
2023-05-12T03:41:49.123Z,16.66
2023-05-12T03:46:06.656Z,16.72
2023-05-12T03:50:24.500Z,16.75
2023-05-12T03:54:42.112Z,16.75
2023-05-12T03:58:59.839Z,16.79
2023-05-12T04:03:35.620Z,16.74
2023-05-12T04:07:53.792Z,16.74
2023-05-12T04:12:11.514Z,16.82
2023-05-12T04:16:29.500Z,16.76
2023-05-12T04:20:47.069Z,16.81
2023-05-12T04:25:05.188Z,16.81
2023-05-12T04:29:23.004Z,16.83
2023-05-12T04:33:40.966Z,16.84
2023-05-12T04:37:58.513Z,16.92
2023-05-12T04:42:16.188Z,16.92
2023-05-12T04:46:33.776Z,17.00
2023-05-12T04:50:51.662Z,16.99
2023-05-12T04:55:09.868Z,16.94
2023-05-12T04:59:27.417Z,17.03
2023-05-12T05:03:45.170Z,17.03
2023-05-12T05:08:03.080Z,17.06
2023-05-12T05:12:20.981Z,17.12
2023-05-12T05:16:39.251Z,17.14
2023-05-12T05:20:58.781Z,17.21
2023-05-12T05:25:17.221Z,17.23
2023-05-12T05:29:34.742Z,17.22
2023-05-12T05:33:52.439Z,17.24
2023-05-12T05:38:10.040Z,17.25
2023-05-12T05:42:27.682Z,17.24
2023-05-12T05:46:45.227Z,17.31
2023-05-12T05:51:03.130Z,17.31
2023-05-12T05:55:22.004Z,17.34
2023-05-12T05:59:40.089Z,17.40
2023-05-12T06:03:57.933Z,17.40
2023-05-12T06:08:16.616Z,17.34
2023-05-12T06:12:34.171Z,17.44
2023-05-12T06:16:52.307Z,17.45
2023-05-12T06:21:09.847Z,17.39
2023-05-12T06:25:27.815Z,17.51
2023-05-12T06:29:45.452Z,17.52
2023-05-12T06:34:03.883Z,17.41
2023-05-12T06:38:21.375Z,17.52
2023-05-12T06:42:39.108Z,17.58
2023-05-12T06:46:57.575Z,17.48
2023-05-12T06:51:15.230Z,17.56
2023-05-12T06:55:32.769Z,17.58
2023-05-12T06:59:51.022Z,17.40
2023-05-12T07:04:08.713Z,17.51
2023-05-12T07:08:28.279Z,17.56
2023-05-12T07:12:45.932Z,17.42
2023-05-12T07:17:04.385Z,17.48
2023-05-12T07:21:22.114Z,17.61
2023-05-12T07:25:40.368Z,17.45
2023-05-12T07:29:57.938Z,17.41
2023-05-12T07:34:15.703Z,17.58
2023-05-12T07:38:33.289Z,17.56
2023-05-12T07:42:51.272Z,17.43
2023-05-12T07:47:08.915Z,17.49
2023-05-12T07:51:26.690Z,17.65
2023-05-12T07:55:44.344Z,17.53
2023-05-12T08:00:03.249Z,17.48
2023-05-12T08:04:22.474Z,17.71
2023-05-12T08:08:40.018Z,17.62
2023-05-12T08:12:57.988Z,17.57
2023-05-12T08:17:15.668Z,17.52
2023-05-12T08:21:33.275Z,17.70
2023-05-12T08:25:51.017Z,17.66
2023-05-12T08:30:09.886Z,17.65
2023-05-12T08:34:27.972Z,17.74
2023-05-12T08:38:45.392Z,17.78
2023-05-12T08:43:30.359Z,17.75
2023-05-12T08:47:48.134Z,17.76
2023-05-12T08:52:06.732Z,17.79
2023-05-12T09:00:46.438Z,17.82
2023-05-12T09:05:04.327Z,17.84
2023-05-12T09:09:22.393Z,17.88
2023-05-12T09:14:08.845Z,17.91
2023-05-12T09:18:26.549Z,17.88
2023-05-12T09:22:44.086Z,17.88
2023-05-12T09:27:02.015Z,17.91
2023-05-12T09:31:24.788Z,18.16
2023-05-12T09:35:46.647Z,18.13
2023-05-12T09:40:06.917Z,18.18
2023-05-12T09:44:25.879Z,18.20
2023-05-12T09:48:43.436Z,18.29
2023-05-12T09:53:02.032Z,18.32
2023-05-12T09:57:23.133Z,18.35
2023-05-12T10:01:41.490Z,18.43
2023-05-12T10:06:04.154Z,18.55
2023-05-12T10:10:26.419Z,18.62
2023-05-12T10:14:44.484Z,18.73
2023-05-12T10:19:03.558Z,18.62
2023-05-12T10:23:21.572Z,18.64
2023-05-12T10:27:39.834Z,18.74
2023-05-12T10:31:58.102Z,18.79
2023-05-12T10:36:20.884Z,18.87
2023-05-12T10:40:58.353Z,18.97
2023-05-12T10:45:18.800Z,19.17
2023-05-12T10:49:41.983Z,19.24
2023-05-12T10:54:05.288Z,19.44
2023-05-12T10:58:23.085Z,19.73
2023-05-12T11:02:51.197Z,21.21
2023-05-12T11:07:12.178Z,24.45
2023-05-12T11:11:30.612Z,25.32
2023-05-12T11:15:48.216Z,25.89
2023-05-12T11:20:06.703Z,20.38
2023-05-12T11:24:24.804Z,22.65
2023-05-12T11:28:42.548Z,19.48
2023-05-12T11:33:02.636Z,24.88
2023-05-12T11:37:23.379Z,26.32
2023-05-12T11:41:41.513Z,26.50
2023-05-12T11:46:00.068Z,25.95
2023-05-12T11:50:23.401Z,26.48
2023-05-12T11:55:06.691Z,25.05
2023-05-12T11:59:33.568Z,21.28
2023-05-12T12:03:53.628Z,22.82
2023-05-12T12:08:17.010Z,20.15
2023-05-12T12:12:34.526Z,23.73
2023-05-12T12:16:52.080Z,24.78
2023-05-12T12:21:09.660Z,21.92
2023-05-12T12:25:27.355Z,25.03
2023-05-12T12:29:44.848Z,23.61
2023-05-12T12:34:04.102Z,26.03
2023-05-12T12:38:21.802Z,20.94
2023-05-12T12:42:41.185Z,25.12
2023-05-12T12:46:58.979Z,22.26
2023-05-12T12:51:16.716Z,24.52
2023-05-12T12:55:34.409Z,25.15
2023-05-12T12:59:51.980Z,21.01
2023-05-12T13:04:09.614Z,20.29
2023-05-12T13:08:27.448Z,21.62
2023-05-12T13:12:45.277Z,20.21
2023-05-12T13:17:02.784Z,24.82
2023-05-12T13:21:23.127Z,27.27
2023-05-12T13:25:40.847Z,25.88
2023-05-12T13:29:58.561Z,26.21
2023-05-12T13:34:16.094Z,22.82
2023-05-12T13:38:34.182Z,23.41
2023-05-12T13:42:51.960Z,21.15
2023-05-12T13:47:10.517Z,20.09
2023-05-12T13:51:28.241Z,21.77
2023-05-12T13:55:45.981Z,20.22
2023-05-12T14:00:04.734Z,22.09
2023-05-12T14:04:23.859Z,25.39
2023-05-12T14:08:41.943Z,25.56
2023-05-12T14:12:59.722Z,25.49
2023-05-12T14:17:17.919Z,25.22
2023-05-12T14:21:35.722Z,24.40
2023-05-12T14:25:53.382Z,21.63
2023-05-12T14:30:11.528Z,20.82
2023-05-12T14:34:29.063Z,20.50
2023-05-12T14:38:46.596Z,20.19
2023-05-12T14:43:05.023Z,20.06
2023-05-12T14:47:22.674Z,20.01
2023-05-12T14:51:41.675Z,19.93
2023-05-12T14:55:59.198Z,19.85
2023-05-12T15:00:17.520Z,19.77
2023-05-12T15:04:35.389Z,19.73
2023-05-12T15:08:53.276Z,19.60
2023-05-12T15:13:12.748Z,19.54
2023-05-12T15:17:30.998Z,19.52
2023-05-12T15:21:48.565Z,19.57
2023-05-12T15:26:26.848Z,19.51
2023-05-12T15:30:45.682Z,19.42
2023-05-12T15:35:03.710Z,19.36
2023-05-12T15:39:21.884Z,19.31
2023-05-12T15:43:41.367Z,19.33
2023-05-12T15:47:59.185Z,19.20
2023-05-12T15:52:16.896Z,19.05
2023-05-12T15:56:34.383Z,19.07
2023-05-12T16:00:54.745Z,19.05
2023-05-12T16:05:12.591Z,18.95
2023-05-12T16:09:30.261Z,18.83
2023-05-12T16:13:47.880Z,18.78
2023-05-12T16:18:09.157Z,18.72
2023-05-12T16:22:28.558Z,18.73
2023-05-12T16:26:46.264Z,18.62
2023-05-12T16:31:04.732Z,18.46
2023-05-12T16:35:23.310Z,18.43
2023-05-12T16:39:40.619Z,18.34
2023-05-12T16:43:58.565Z,18.25
2023-05-12T16:48:16.438Z,18.22
2023-05-12T16:52:35.725Z,18.17
2023-05-12T17:01:11.025Z,18.23
2023-05-12T17:05:28.596Z,18.32
2023-05-12T17:09:46.542Z,18.20
2023-05-12T17:14:05.077Z,18.11
2023-05-12T17:18:25.140Z,18.15
2023-05-12T17:22:44.552Z,18.16
2023-05-12T17:27:02.276Z,18.07
2023-05-12T17:31:20.206Z,17.98
2023-05-12T17:35:37.896Z,17.93
2023-05-12T17:39:55.429Z,18.04
2023-05-12T17:44:13.067Z,17.93
2023-05-12T17:48:34.015Z,17.84
2023-05-12T17:52:54.966Z,17.75
2023-05-12T17:57:12.445Z,17.86
2023-05-12T18:01:31.023Z,17.88
2023-05-12T18:05:48.878Z,17.80
2023-05-12T18:10:11.779Z,17.74
2023-05-12T18:14:30.747Z,17.77
2023-05-12T18:18:49.045Z,17.84
2023-05-12T18:23:07.081Z,17.74
2023-05-12T18:27:24.685Z,17.63
2023-05-12T18:31:44.282Z,17.63
2023-05-12T18:36:03.284Z,17.76
2023-05-12T18:40:20.962Z,17.69
2023-05-12T18:44:40.916Z,17.62
2023-05-12T18:48:58.464Z,17.61
2023-05-12T18:53:16.293Z,17.78
2023-05-12T18:57:34.358Z,17.70
2023-05-12T19:01:52.004Z,17.61
2023-05-12T19:06:09.811Z,17.57
2023-05-12T19:10:27.612Z,17.57
2023-05-12T19:14:45.340Z,17.78
2023-05-12T19:19:03.184Z,17.70
2023-05-12T19:23:21.389Z,17.56
2023-05-12T19:27:38.576Z,17.53
2023-05-12T19:31:56.516Z,17.75
2023-05-12T19:36:14.027Z,17.77
2023-05-12T19:40:32.487Z,17.71
2023-05-12T19:44:50.312Z,17.66
2023-05-12T19:49:07.920Z,17.67
2023-05-12T19:53:25.858Z,17.77
2023-05-12T19:57:44.116Z,17.72
2023-05-12T20:02:03.073Z,17.64
2023-05-12T20:06:22.561Z,17.67
2023-05-12T20:10:40.467Z,17.78
2023-05-12T20:14:58.051Z,17.69
2023-05-12T20:19:15.780Z,17.65
2023-05-12T20:23:33.495Z,17.69
2023-05-12T20:27:51.399Z,17.72
2023-05-12T20:32:08.949Z,17.68
2023-05-12T20:36:26.585Z,17.65
2023-05-12T20:40:43.807Z,17.63
2023-05-12T20:45:01.925Z,17.65
2023-05-12T20:49:19.792Z,17.66
2023-05-12T20:53:37.430Z,17.61
2023-05-12T20:57:55.679Z,17.54
2023-05-12T21:02:13.273Z,17.63
2023-05-12T21:06:31.105Z,17.63
2023-05-12T21:10:49.016Z,17.51
2023-05-12T21:15:10.740Z,17.56
2023-05-12T21:19:28.314Z,17.57
2023-05-12T21:23:46.632Z,17.54
2023-05-12T21:28:06.814Z,17.52
2023-05-12T21:32:25.008Z,17.58
2023-05-12T21:36:42.717Z,17.53
2023-05-12T21:41:01.513Z,17.42
2023-05-12T21:45:21.613Z,17.54
2023-05-12T21:49:39.348Z,17.52
2023-05-12T21:53:57.132Z,17.44
2023-05-12T21:58:15.369Z,17.40
2023-05-12T22:02:32.861Z,17.47
2023-05-12T22:06:51.026Z,17.42
2023-05-12T22:11:09.117Z,17.43
2023-05-12T22:15:26.767Z,17.44
2023-05-12T22:19:44.604Z,17.46
2023-05-12T22:24:02.258Z,17.42
2023-05-12T22:28:19.841Z,17.35
2023-05-12T22:32:37.642Z,17.42
2023-05-12T22:36:55.268Z,17.37
2023-05-12T22:41:12.933Z,17.34
2023-05-12T22:45:30.968Z,17.40
2023-05-12T22:49:48.717Z,17.35
2023-05-12T22:54:06.280Z,17.33
2023-05-12T22:58:24.141Z,17.36
2023-05-12T23:02:41.212Z,17.35
2023-05-12T23:06:58.916Z,17.32
2023-05-12T23:11:16.757Z,17.31
2023-05-12T23:15:34.288Z,17.33
2023-05-12T23:19:55.117Z,17.31
2023-05-12T23:24:12.639Z,17.23
2023-05-12T23:28:30.378Z,17.31
2023-05-12T23:32:50.588Z,17.23
2023-05-12T23:37:08.676Z,17.22
2023-05-12T23:41:26.301Z,17.21
2023-05-12T23:45:46.707Z,17.20
2023-05-12T23:50:04.682Z,17.14
2023-05-12T23:54:22.505Z,17.17
2023-05-12T23:58:43.043Z,17.14
